Clearview, Texas
Current Conditions -  °F | °C
As of 5:35 AM on Friday 31 Oct 2014 (Local Time) from KGYB Reporting Station
Clear Clear  
Wind Chill: 61°   Ceiling: Unl
Heat Index: 61°   Visibility: 10mi
Dew Point: 55°   Wind: 6mph
Humidity: 81%   Direction: 330°NNW
Pressure: 30.2"   Gusts: NA
Location:  30.1644°N, 97.2747°W
Report Text: KGYB 311035Z AUTO 33005KT 10SM CLR 16/13 A3020 RMK AO2 T01630130
Loading
Personal Weather Stations






























Interactive Weather Map New forecast layout! Learn more

10-Day Weather Forecast

Advertisements
Track Severe Weather on mobile